sensor_id;sensor_type;location;lat;lon;timestamp;P1;durP1;ratioP1;P2;durP2;ratioP2
69185;SDS011;56298;49.246;9.410;2023-12-04T00:02:44;35.73;;;26.50;;
69185;SDS011;56298;49.246;9.410;2023-12-04T00:05:12;37.83;;;27.65;;
69185;SDS011;56298;49.246;9.410;2023-12-04T00:07:37;35.15;;;26.95;;
69185;SDS011;56298;49.246;9.410;2023-12-04T00:10:02;35.28;;;26.45;;
69185;SDS011;56298;49.246;9.410;2023-12-04T00:12:28;37.97;;;27.65;;
69185;SDS011;56298;49.246;9.410;2023-12-04T00:14:53;35.15;;;27.92;;
69185;SDS011;56298;49.246;9.410;2023-12-04T00:17:19;32.73;;;27.07;;
69185;SDS011;56298;49.246;9.410;2023-12-04T00:19:44;35.90;;;27.03;;
69185;SDS011;56298;49.246;9.410;2023-12-04T00:22:09;35.57;;;25.97;;
69185;SDS011;56298;49.246;9.410;2023-12-04T00:24:35;36.43;;;28.03;;
69185;SDS011;56298;49.246;9.410;2023-12-04T00:27:00;37.90;;;29.07;;
69185;SDS011;56298;49.246;9.410;2023-12-04T00:29:25;37.97;;;28.43;;
69185;SDS011;56298;49.246;9.410;2023-12-04T00:31:50;35.35;;;26.77;;
69185;SDS011;56298;49.246;9.410;2023-12-04T00:34:16;36.20;;;26.77;;
69185;SDS011;56298;49.246;9.410;2023-12-04T00:36:41;37.60;;;28.60;;
69185;SDS011;56298;49.246;9.410;2023-12-04T00:39:06;36.93;;;27.37;;
69185;SDS011;56298;49.246;9.410;2023-12-04T00:41:31;38.17;;;27.30;;
69185;SDS011;56298;49.246;9.410;2023-12-04T00:43:57;36.67;;;26.30;;
69185;SDS011;56298;49.246;9.410;2023-12-04T00:46:22;35.07;;;25.77;;
69185;SDS011;56298;49.246;9.410;2023-12-04T00:48:48;33.60;;;24.93;;
69185;SDS011;56298;49.246;9.410;2023-12-04T00:51:13;35.85;;;26.90;;
69185;SDS011;56298;49.246;9.410;2023-12-04T00:53:38;37.40;;;28.60;;
69185;SDS011;56298;49.246;9.410;2023-12-04T00:56:04;35.93;;;27.57;;
69185;SDS011;56298;49.246;9.410;2023-12-04T00:58:30;38.47;;;28.00;;
69185;SDS011;56298;49.246;9.410;2023-12-04T01:00:55;36.93;;;27.50;;
69185;SDS011;56298;49.246;9.410;2023-12-04T01:03:22;39.38;;;28.15;;
69185;SDS011;56298;49.246;9.410;2023-12-04T01:05:47;34.30;;;26.03;;
69185;SDS011;56298;49.246;9.410;2023-12-04T01:08:12;34.97;;;25.77;;
69185;SDS011;56298;49.246;9.410;2023-12-04T01:10:38;36.60;;;26.90;;
69185;SDS011;56298;49.246;9.410;2023-12-04T01:13:04;35.60;;;26.02;;
69185;SDS011;56298;49.246;9.410;2023-12-04T01:15:30;36.00;;;26.80;;
69185;SDS011;56298;49.246;9.410;2023-12-04T01:17:55;33.00;;;25.27;;
69185;SDS011;56298;49.246;9.410;2023-12-04T01:20:20;35.53;;;26.43;;
69185;SDS011;56298;49.246;9.410;2023-12-04T01:22:46;35.47;;;26.23;;
69185;SDS011;56298;49.246;9.410;2023-12-04T01:25:11;35.57;;;26.47;;
69185;SDS011;56298;49.246;9.410;2023-12-04T01:27:36;34.50;;;26.23;;
69185;SDS011;56298;49.246;9.410;2023-12-04T01:30:02;35.33;;;27.73;;
69185;SDS011;56298;49.246;9.410;2023-12-04T01:32:29;34.67;;;26.48;;
69185;SDS011;56298;49.246;9.410;2023-12-04T01:34:55;37.17;;;27.77;;
69185;SDS011;56298;49.246;9.410;2023-12-04T01:37:21;30.53;;;25.23;;
69185;SDS011;56298;49.246;9.410;2023-12-04T01:39:46;34.60;;;26.47;;
69185;SDS011;56298;49.246;9.410;2023-12-04T01:42:11;37.40;;;26.77;;
69185;SDS011;56298;49.246;9.410;2023-12-04T01:44:36;33.60;;;24.27;;
69185;SDS011;56298;49.246;9.410;2023-12-04T01:47:02;34.73;;;26.20;;
69185;SDS011;56298;49.246;9.410;2023-12-04T01:49:28;35.10;;;25.45;;
69185;SDS011;56298;49.246;9.410;2023-12-04T01:51:54;31.95;;;24.38;;
69185;SDS011;56298;49.246;9.410;2023-12-04T01:54:20;32.00;;;24.50;;
69185;SDS011;56298;49.246;9.410;2023-12-04T01:56:46;34.55;;;25.23;;
69185;SDS011;56298;49.246;9.410;2023-12-04T01:59:12;33.40;;;24.58;;
69185;SDS011;56298;49.246;9.410;2023-12-04T02:01:37;34.60;;;25.43;;
69185;SDS011;56298;49.246;9.410;2023-12-04T02:04:02;35.80;;;25.67;;
69185;SDS011;56298;49.246;9.410;2023-12-04T02:06:28;34.95;;;25.90;;
69185;SDS011;56298;49.246;9.410;2023-12-04T02:08:55;32.88;;;25.27;;
69185;SDS011;56298;49.246;9.410;2023-12-04T02:11:21;32.67;;;24.90;;
69185;SDS011;56298;49.246;9.410;2023-12-04T02:13:46;32.50;;;24.47;;
69185;SDS011;56298;49.246;9.410;2023-12-04T02:16:12;32.93;;;24.57;;
69185;SDS011;56298;49.246;9.410;2023-12-04T02:18:39;31.33;;;23.05;;
69185;SDS011;56298;49.246;9.410;2023-12-04T02:21:05;30.48;;;23.98;;
69185;SDS011;56298;49.246;9.410;2023-12-04T02:23:31;31.83;;;24.85;;
69185;SDS011;56298;49.246;9.410;2023-12-04T02:25:59;29.87;;;23.33;;
69185;SDS011;56298;49.246;9.410;2023-12-04T02:28:34;31.42;;;23.80;;
69185;SDS011;56298;49.246;9.410;2023-12-04T02:31:01;29.97;;;24.23;;
69185;SDS011;56298;49.246;9.410;2023-12-04T02:33:29;30.47;;;23.87;;
69185;SDS011;56298;49.246;9.410;2023-12-04T02:35:56;30.98;;;24.90;;
69185;SDS011;56298;49.246;9.410;2023-12-04T02:38:23;33.25;;;25.10;;
69185;SDS011;56298;49.246;9.410;2023-12-04T02:40:49;31.73;;;24.03;;
69185;SDS011;56298;49.246;9.410;2023-12-04T02:43:15;31.13;;;23.93;;
69185;SDS011;56298;49.246;9.410;2023-12-04T02:45:40;29.70;;;23.07;;
69185;SDS011;56298;49.246;9.410;2023-12-04T02:48:05;31.10;;;23.43;;
69185;SDS011;56298;49.246;9.410;2023-12-04T02:50:31;29.10;;;23.05;;
69185;SDS011;56298;49.246;9.410;2023-12-04T02:52:56;30.02;;;23.10;;
69185;SDS011;56298;49.246;9.410;2023-12-04T02:55:21;30.00;;;22.70;;
69185;SDS011;56298;49.246;9.410;2023-12-04T02:57:47;28.30;;;21.37;;
69185;SDS011;56298;49.246;9.410;2023-12-04T03:00:12;28.67;;;22.10;;
69185;SDS011;56298;49.246;9.410;2023-12-04T03:02:38;30.15;;;23.38;;
69185;SDS011;56298;49.246;9.410;2023-12-04T03:05:03;28.67;;;23.20;;
69185;SDS011;56298;49.246;9.410;2023-12-04T03:07:29;30.20;;;24.13;;
69185;SDS011;56298;49.246;9.410;2023-12-04T03:09:54;29.80;;;23.37;;
69185;SDS011;56298;49.246;9.410;2023-12-04T03:12:19;29.20;;;22.93;;
69185;SDS011;56298;49.246;9.410;2023-12-04T03:14:45;29.13;;;21.87;;
69185;SDS011;56298;49.246;9.410;2023-12-04T03:17:10;27.48;;;22.55;;
69185;SDS011;56298;49.246;9.410;2023-12-04T03:19:35;29.30;;;23.57;;
69185;SDS011;56298;49.246;9.410;2023-12-04T03:22:01;26.70;;;21.37;;
69185;SDS011;56298;49.246;9.410;2023-12-04T03:24:26;26.30;;;21.98;;
69185;SDS011;56298;49.246;9.410;2023-12-04T03:26:51;27.75;;;22.13;;
69185;SDS011;56298;49.246;9.410;2023-12-04T03:29:17;28.73;;;23.05;;
69185;SDS011;56298;49.246;9.410;2023-12-04T03:31:43;29.60;;;23.98;;
69185;SDS011;56298;49.246;9.410;2023-12-04T03:34:08;29.93;;;23.70;;
69185;SDS011;56298;49.246;9.410;2023-12-04T03:36:33;27.57;;;22.07;;
69185;SDS011;56298;49.246;9.410;2023-12-04T03:38:58;27.05;;;22.42;;
69185;SDS011;56298;49.246;9.410;2023-12-04T03:41:24;29.50;;;23.37;;
69185;SDS011;56298;49.246;9.410;2023-12-04T03:43:49;28.40;;;23.33;;
69185;SDS011;56298;49.246;9.410;2023-12-04T03:46:14;27.33;;;22.37;;
69185;SDS011;56298;49.246;9.410;2023-12-04T03:48:39;27.60;;;22.50;;
69185;SDS011;56298;49.246;9.410;2023-12-04T03:51:05;25.63;;;22.23;;
69185;SDS011;56298;49.246;9.410;2023-12-04T03:53:30;26.17;;;22.27;;
69185;SDS011;56298;49.246;9.410;2023-12-04T03:55:57;26.10;;;21.50;;
69185;SDS011;56298;49.246;9.410;2023-12-04T03:58:23;26.55;;;22.20;;
69185;SDS011;56298;49.246;9.410;2023-12-04T04:00:48;23.87;;;21.00;;
69185;SDS011;56298;49.246;9.410;2023-12-04T04:03:14;24.97;;;20.10;;
69185;SDS011;56298;49.246;9.410;2023-12-04T04:05:40;23.53;;;20.23;;
69185;SDS011;56298;49.246;9.410;2023-12-04T04:08:05;24.87;;;21.23;;
69185;SDS011;56298;49.246;9.410;2023-12-04T04:10:32;23.80;;;20.97;;
69185;SDS011;56298;49.246;9.410;2023-12-04T04:12:57;22.97;;;20.27;;
69185;SDS011;56298;49.246;9.410;2023-12-04T04:15:22;22.87;;;19.53;;
69185;SDS011;56298;49.246;9.410;2023-12-04T04:17:48;23.57;;;20.50;;
69185;SDS011;56298;49.246;9.410;2023-12-04T04:20:13;23.53;;;19.67;;
69185;SDS011;56298;49.246;9.410;2023-12-04T04:22:39;22.70;;;19.85;;
69185;SDS011;56298;49.246;9.410;2023-12-04T04:25:06;24.35;;;19.13;;
69185;SDS011;56298;49.246;9.410;2023-12-04T04:27:32;21.40;;;18.92;;
69185;SDS011;56298;49.246;9.410;2023-12-04T04:29:58;22.55;;;19.95;;
69185;SDS011;56298;49.246;9.410;2023-12-04T04:32:23;22.63;;;19.52;;
69185;SDS011;56298;49.246;9.410;2023-12-04T04:34:48;23.43;;;20.57;;
69185;SDS011;56298;49.246;9.410;2023-12-04T04:37:14;25.48;;;21.17;;
69185;SDS011;56298;49.246;9.410;2023-12-04T04:39:40;23.03;;;20.07;;
69185;SDS011;56298;49.246;9.410;2023-12-04T04:42:05;23.33;;;19.93;;
69185;SDS011;56298;49.246;9.410;2023-12-04T04:44:30;23.23;;;19.90;;
69185;SDS011;56298;49.246;9.410;2023-12-04T04:46:56;21.53;;;18.73;;
69185;SDS011;56298;49.246;9.410;2023-12-04T04:49:21;24.15;;;19.75;;
69185;SDS011;56298;49.246;9.410;2023-12-04T04:51:46;22.57;;;19.37;;
69185;SDS011;56298;49.246;9.410;2023-12-04T04:54:12;23.13;;;19.40;;
69185;SDS011;56298;49.246;9.410;2023-12-04T04:56:37;22.70;;;19.13;;
69185;SDS011;56298;49.246;9.410;2023-12-04T04:59:02;22.20;;;18.70;;
69185;SDS011;56298;49.246;9.410;2023-12-04T05:01:28;23.57;;;20.97;;
69185;SDS011;56298;49.246;9.410;2023-12-04T05:03:53;22.87;;;19.67;;
69185;SDS011;56298;49.246;9.410;2023-12-04T05:06:19;23.03;;;20.57;;
69185;SDS011;56298;49.246;9.410;2023-12-04T05:08:44;22.40;;;19.30;;
69185;SDS011;56298;49.246;9.410;2023-12-04T05:11:09;22.97;;;19.77;;
69185;SDS011;56298;49.246;9.410;2023-12-04T05:13:35;22.37;;;20.03;;
69185;SDS011;56298;49.246;9.410;2023-12-04T05:16:00;22.30;;;19.57;;
69185;SDS011;56298;49.246;9.410;2023-12-04T05:18:25;22.70;;;20.03;;
69185;SDS011;56298;49.246;9.410;2023-12-04T05:20:50;21.52;;;19.33;;
69185;SDS011;56298;49.246;9.410;2023-12-04T05:23:16;23.27;;;20.70;;
69185;SDS011;56298;49.246;9.410;2023-12-04T05:25:41;21.10;;;18.47;;
69185;SDS011;56298;49.246;9.410;2023-12-04T05:28:06;22.37;;;19.80;;
69185;SDS011;56298;49.246;9.410;2023-12-04T05:30:31;23.23;;;20.73;;
69185;SDS011;56298;49.246;9.410;2023-12-04T05:32:57;23.67;;;20.30;;
69185;SDS011;56298;49.246;9.410;2023-12-04T05:35:22;23.13;;;20.23;;
69185;SDS011;56298;49.246;9.410;2023-12-04T05:37:47;23.93;;;20.47;;
69185;SDS011;56298;49.246;9.410;2023-12-04T05:40:13;23.25;;;20.73;;
69185;SDS011;56298;49.246;9.410;2023-12-04T05:42:38;23.38;;;20.45;;
69185;SDS011;56298;49.246;9.410;2023-12-04T05:45:04;23.83;;;20.23;;
69185;SDS011;56298;49.246;9.410;2023-12-04T05:47:29;22.73;;;20.33;;
69185;SDS011;56298;49.246;9.410;2023-12-04T05:49:55;22.40;;;19.70;;
69185;SDS011;56298;49.246;9.410;2023-12-04T05:52:20;25.03;;;20.27;;
69185;SDS011;56298;49.246;9.410;2023-12-04T05:54:45;25.30;;;21.30;;
69185;SDS011;56298;49.246;9.410;2023-12-04T05:57:11;25.90;;;21.07;;
69185;SDS011;56298;49.246;9.410;2023-12-04T05:59:36;25.40;;;20.97;;
69185;SDS011;56298;49.246;9.410;2023-12-04T06:02:01;25.00;;;21.77;;
69185;SDS011;56298;49.246;9.410;2023-12-04T06:04:27;27.60;;;23.03;;
69185;SDS011;56298;49.246;9.410;2023-12-04T06:06:52;24.83;;;21.17;;
69185;SDS011;56298;49.246;9.410;2023-12-04T06:09:17;25.77;;;21.63;;
69185;SDS011;56298;49.246;9.410;2023-12-04T06:11:42;25.30;;;22.47;;
69185;SDS011;56298;49.246;9.410;2023-12-04T06:14:08;24.67;;;21.67;;
69185;SDS011;56298;49.246;9.410;2023-12-04T06:16:33;25.77;;;20.27;;
69185;SDS011;56298;49.246;9.410;2023-12-04T06:18:58;24.87;;;19.60;;
69185;SDS011;56298;49.246;9.410;2023-12-04T06:21:23;24.83;;;20.53;;
69185;SDS011;56298;49.246;9.410;2023-12-04T06:23:49;25.00;;;20.50;;
69185;SDS011;56298;49.246;9.410;2023-12-04T06:26:14;23.67;;;19.97;;
69185;SDS011;56298;49.246;9.410;2023-12-04T06:28:41;23.55;;;21.05;;
69185;SDS011;56298;49.246;9.410;2023-12-04T06:31:07;23.30;;;20.25;;
69185;SDS011;56298;49.246;9.410;2023-12-04T06:33:33;23.30;;;19.33;;
69185;SDS011;56298;49.246;9.410;2023-12-04T06:35:58;24.33;;;21.43;;
69185;SDS011;56298;49.246;9.410;2023-12-04T06:38:24;23.73;;;19.73;;
69185;SDS011;56298;49.246;9.410;2023-12-04T06:40:50;24.60;;;21.27;;
69185;SDS011;56298;49.246;9.410;2023-12-04T06:43:16;22.83;;;20.42;;
69185;SDS011;56298;49.246;9.410;2023-12-04T06:45:43;23.63;;;20.90;;
69185;SDS011;56298;49.246;9.410;2023-12-04T06:48:13;21.33;;;18.27;;
69185;SDS011;56298;49.246;9.410;2023-12-04T06:50:38;22.77;;;19.53;;
69185;SDS011;56298;49.246;9.410;2023-12-04T06:53:05;24.10;;;20.93;;
69185;SDS011;56298;49.246;9.410;2023-12-04T06:55:30;22.63;;;19.20;;
69185;SDS011;56298;49.246;9.410;2023-12-04T06:57:55;24.93;;;20.17;;
69185;SDS011;56298;49.246;9.410;2023-12-04T07:00:21;22.67;;;19.80;;
69185;SDS011;56298;49.246;9.410;2023-12-04T07:02:46;21.63;;;19.33;;
69185;SDS011;56298;49.246;9.410;2023-12-04T07:05:11;23.50;;;20.77;;
69185;SDS011;56298;49.246;9.410;2023-12-04T07:07:36;24.80;;;20.87;;
69185;SDS011;56298;49.246;9.410;2023-12-04T07:10:02;22.87;;;19.93;;
69185;SDS011;56298;49.246;9.410;2023-12-04T07:12:27;22.10;;;18.93;;
69185;SDS011;56298;49.246;9.410;2023-12-04T07:14:52;23.23;;;19.80;;
69185;SDS011;56298;49.246;9.410;2023-12-04T07:17:17;23.40;;;18.80;;
69185;SDS011;56298;49.246;9.410;2023-12-04T07:19:43;21.10;;;18.33;;
69185;SDS011;56298;49.246;9.410;2023-12-04T07:22:08;22.13;;;19.77;;
69185;SDS011;56298;49.246;9.410;2023-12-04T07:24:33;22.58;;;19.35;;
69185;SDS011;56298;49.246;9.410;2023-12-04T07:26:59;22.40;;;18.13;;
69185;SDS011;56298;49.246;9.410;2023-12-04T07:29:24;22.97;;;18.30;;
69185;SDS011;56298;49.246;9.410;2023-12-04T07:31:49;23.47;;;19.13;;
69185;SDS011;56298;49.246;9.410;2023-12-04T07:34:15;22.70;;;19.88;;
69185;SDS011;56298;49.246;9.410;2023-12-04T07:36:40;23.67;;;19.75;;
69185;SDS011;56298;49.246;9.410;2023-12-04T07:39:05;23.67;;;19.77;;
69185;SDS011;56298;49.246;9.410;2023-12-04T07:41:31;21.83;;;17.80;;
69185;SDS011;56298;49.246;9.410;2023-12-04T07:43:57;22.05;;;19.05;;
69185;SDS011;56298;49.246;9.410;2023-12-04T07:46:22;23.47;;;19.13;;
69185;SDS011;56298;49.246;9.410;2023-12-04T07:48:47;21.73;;;19.50;;
69185;SDS011;56298;49.246;9.410;2023-12-04T07:51:13;23.80;;;20.27;;
69185;SDS011;56298;49.246;9.410;2023-12-04T07:53:38;23.02;;;20.05;;
69185;SDS011;56298;49.246;9.410;2023-12-04T07:56:04;22.73;;;19.50;;
69185;SDS011;56298;49.246;9.410;2023-12-04T07:58:30;23.67;;;21.17;;
69185;SDS011;56298;49.246;9.410;2023-12-04T08:00:56;22.67;;;19.80;;
69185;SDS011;56298;49.246;9.410;2023-12-04T08:03:21;23.53;;;19.87;;
69185;SDS011;56298;49.246;9.410;2023-12-04T08:05:46;23.23;;;18.97;;
69185;SDS011;56298;49.246;9.410;2023-12-04T08:08:12;23.07;;;19.00;;
69185;SDS011;56298;49.246;9.410;2023-12-04T08:10:37;21.83;;;19.43;;
69185;SDS011;56298;49.246;9.410;2023-12-04T08:13:02;23.33;;;20.13;;
69185;SDS011;56298;49.246;9.410;2023-12-04T08:15:28;24.17;;;20.20;;
69185;SDS011;56298;49.246;9.410;2023-12-04T08:17:53;22.47;;;19.67;;
69185;SDS011;56298;49.246;9.410;2023-12-04T08:20:18;22.55;;;18.80;;
69185;SDS011;56298;49.246;9.410;2023-12-04T08:22:47;22.70;;;19.65;;
69185;SDS011;56298;49.246;9.410;2023-12-04T08:25:13;22.20;;;19.85;;
69185;SDS011;56298;49.246;9.410;2023-12-04T08:27:38;23.08;;;20.45;;
69185;SDS011;56298;49.246;9.410;2023-12-04T08:30:04;21.87;;;19.37;;
69185;SDS011;56298;49.246;9.410;2023-12-04T08:32:30;21.00;;;18.67;;
69185;SDS011;56298;49.246;9.410;2023-12-04T08:34:55;22.23;;;18.83;;
69185;SDS011;56298;49.246;9.410;2023-12-04T08:37:20;22.30;;;19.90;;
69185;SDS011;56298;49.246;9.410;2023-12-04T08:39:46;22.58;;;19.17;;
69185;SDS011;56298;49.246;9.410;2023-12-04T08:42:11;22.07;;;19.77;;
69185;SDS011;56298;49.246;9.410;2023-12-04T08:44:37;22.30;;;19.47;;
69185;SDS011;56298;49.246;9.410;2023-12-04T08:47:02;23.97;;;19.97;;
69185;SDS011;56298;49.246;9.410;2023-12-04T08:49:28;22.30;;;19.90;;
69185;SDS011;56298;49.246;9.410;2023-12-04T08:51:53;22.83;;;20.17;;
69185;SDS011;56298;49.246;9.410;2023-12-04T08:54:18;23.80;;;21.30;;
69185;SDS011;56298;49.246;9.410;2023-12-04T08:56:44;24.37;;;20.93;;
69185;SDS011;56298;49.246;9.410;2023-12-04T08:59:09;26.97;;;20.47;;
69185;SDS011;56298;49.246;9.410;2023-12-04T09:01:35;24.60;;;20.50;;
69185;SDS011;56298;49.246;9.410;2023-12-04T09:04:01;23.80;;;20.67;;
69185;SDS011;56298;49.246;9.410;2023-12-04T09:06:26;26.33;;;20.30;;
69185;SDS011;56298;49.246;9.410;2023-12-04T09:08:51;24.00;;;21.17;;
69185;SDS011;56298;49.246;9.410;2023-12-04T09:11:17;24.83;;;20.73;;
69185;SDS011;56298;49.246;9.410;2023-12-04T09:13:42;23.23;;;20.67;;
69185;SDS011;56298;49.246;9.410;2023-12-04T09:16:07;24.57;;;20.07;;
69185;SDS011;56298;49.246;9.410;2023-12-04T09:18:33;23.20;;;20.05;;
69185;SDS011;56298;49.246;9.410;2023-12-04T09:20:59;24.37;;;21.20;;
69185;SDS011;56298;49.246;9.410;2023-12-04T09:23:24;24.27;;;20.77;;
69185;SDS011;56298;49.246;9.410;2023-12-04T09:25:50;24.07;;;21.47;;
69185;SDS011;56298;49.246;9.410;2023-12-04T09:28:15;24.53;;;20.90;;
69185;SDS011;56298;49.246;9.410;2023-12-04T09:30:41;25.17;;;21.17;;
69185;SDS011;56298;49.246;9.410;2023-12-04T09:33:06;25.20;;;20.30;;
69185;SDS011;56298;49.246;9.410;2023-12-04T09:35:32;24.80;;;20.77;;
69185;SDS011;56298;49.246;9.410;2023-12-04T09:37:57;26.27;;;20.83;;
69185;SDS011;56298;49.246;9.410;2023-12-04T09:40:23;24.83;;;20.83;;
69185;SDS011;56298;49.246;9.410;2023-12-04T09:42:48;25.80;;;20.73;;
69185;SDS011;56298;49.246;9.410;2023-12-04T09:45:14;24.52;;;20.77;;
69185;SDS011;56298;49.246;9.410;2023-12-04T09:47:39;22.85;;;19.65;;
69185;SDS011;56298;49.246;9.410;2023-12-04T09:50:06;24.73;;;20.07;;
69185;SDS011;56298;49.246;9.410;2023-12-04T09:52:32;25.92;;;19.70;;
69185;SDS011;56298;49.246;9.410;2023-12-04T09:55:00;22.85;;;18.50;;
69185;SDS011;56298;49.246;9.410;2023-12-04T09:57:26;23.97;;;18.27;;
69185;SDS011;56298;49.246;9.410;2023-12-04T09:59:52;23.73;;;17.67;;
69185;SDS011;56298;49.246;9.410;2023-12-04T10:02:18;22.35;;;18.35;;
69185;SDS011;56298;49.246;9.410;2023-12-04T10:04:44;23.00;;;19.50;;
69185;SDS011;56298;49.246;9.410;2023-12-04T10:07:10;24.42;;;19.85;;
69185;SDS011;56298;49.246;9.410;2023-12-04T10:09:36;26.73;;;20.40;;
69185;SDS011;56298;49.246;9.410;2023-12-04T10:12:01;24.23;;;19.77;;
69185;SDS011;56298;49.246;9.410;2023-12-04T10:14:26;23.73;;;19.83;;
69185;SDS011;56298;49.246;9.410;2023-12-04T10:16:52;22.90;;;20.33;;
69185;SDS011;56298;49.246;9.410;2023-12-04T10:19:24;25.10;;;20.13;;
69185;SDS011;56298;49.246;9.410;2023-12-04T10:21:55;24.73;;;19.77;;
69185;SDS011;56298;49.246;9.410;2023-12-04T10:24:29;25.65;;;20.33;;
69185;SDS011;56298;49.246;9.410;2023-12-04T10:26:57;24.33;;;20.80;;
69185;SDS011;56298;49.246;9.410;2023-12-04T10:29:23;23.80;;;20.15;;
69185;SDS011;56298;49.246;9.410;2023-12-04T10:31:49;24.02;;;20.35;;
69185;SDS011;56298;49.246;9.410;2023-12-04T10:34:15;21.98;;;18.58;;
69185;SDS011;56298;49.246;9.410;2023-12-04T10:36:41;23.50;;;18.03;;
69185;SDS011;56298;49.246;9.410;2023-12-04T10:39:06;22.53;;;18.27;;
69185;SDS011;56298;49.246;9.410;2023-12-04T10:41:32;22.50;;;16.67;;
69185;SDS011;56298;49.246;9.410;2023-12-04T10:43:57;20.53;;;14.30;;
69185;SDS011;56298;49.246;9.410;2023-12-04T10:46:26;19.37;;;12.60;;
69185;SDS011;56298;49.246;9.410;2023-12-04T10:48:52;20.13;;;11.00;;
69185;SDS011;56298;49.246;9.410;2023-12-04T10:51:18;17.47;;;9.40;;
69185;SDS011;56298;49.246;9.410;2023-12-04T10:53:44;18.13;;;10.40;;
69185;SDS011;56298;49.246;9.410;2023-12-04T10:56:20;17.70;;;9.40;;
69185;SDS011;56298;49.246;9.410;2023-12-04T10:58:58;16.98;;;8.90;;
69185;SDS011;56298;49.246;9.410;2023-12-04T11:01:26;17.35;;;8.73;;
69185;SDS011;56298;49.246;9.410;2023-12-04T11:03:53;16.95;;;7.97;;
69185;SDS011;56298;49.246;9.410;2023-12-04T11:06:21;16.17;;;8.37;;
69185;SDS011;56298;49.246;9.410;2023-12-04T11:08:48;18.67;;;8.50;;
69185;SDS011;56298;49.246;9.410;2023-12-04T11:11:27;16.90;;;8.03;;
69185;SDS011;56298;49.246;9.410;2023-12-04T11:13:56;16.43;;;7.90;;
69185;SDS011;56298;49.246;9.410;2023-12-04T11:16:31;15.75;;;7.75;;
69185;SDS011;56298;49.246;9.410;2023-12-04T11:19:00;17.48;;;8.32;;
69185;SDS011;56298;49.246;9.410;2023-12-04T11:21:31;15.70;;;7.90;;
69185;SDS011;56298;49.246;9.410;2023-12-04T11:23:57;18.55;;;8.93;;
69185;SDS011;56298;49.246;9.410;2023-12-04T11:26:23;17.85;;;8.25;;
69185;SDS011;56298;49.246;9.410;2023-12-04T11:28:50;16.65;;;7.60;;
69185;SDS011;56298;49.246;9.410;2023-12-04T11:31:16;16.98;;;8.10;;
69185;SDS011;56298;49.246;9.410;2023-12-04T11:33:42;17.57;;;8.30;;
69185;SDS011;56298;49.246;9.410;2023-12-04T11:36:07;17.03;;;8.53;;
69185;SDS011;56298;49.246;9.410;2023-12-04T11:38:34;18.27;;;8.90;;
69185;SDS011;56298;49.246;9.410;2023-12-04T11:41:06;18.02;;;9.80;;
69185;SDS011;56298;49.246;9.410;2023-12-04T11:43:39;18.77;;;13.00;;
69185;SDS011;56298;49.246;9.410;2023-12-04T11:46:10;21.48;;;16.52;;
69185;SDS011;56298;49.246;9.410;2023-12-04T11:48:36;23.48;;;18.38;;
69185;SDS011;56298;49.246;9.410;2023-12-04T11:51:03;22.15;;;18.95;;
69185;SDS011;56298;49.246;9.410;2023-12-04T11:53:28;26.50;;;21.25;;
69185;SDS011;56298;49.246;9.410;2023-12-04T11:55:55;24.13;;;20.87;;
69185;SDS011;56298;49.246;9.410;2023-12-04T11:58:22;23.17;;;20.42;;
69185;SDS011;56298;49.246;9.410;2023-12-04T12:00:47;24.23;;;20.50;;
69185;SDS011;56298;49.246;9.410;2023-12-04T12:03:14;25.08;;;19.75;;
69185;SDS011;56298;49.246;9.410;2023-12-04T12:05:39;26.67;;;21.70;;
69185;SDS011;56298;49.246;9.410;2023-12-04T12:08:06;24.90;;;20.80;;
69185;SDS011;56298;49.246;9.410;2023-12-04T12:10:34;24.60;;;20.83;;
69185;SDS011;56298;49.246;9.410;2023-12-04T12:13:00;25.90;;;21.33;;
69185;SDS011;56298;49.246;9.410;2023-12-04T12:15:26;25.65;;;20.98;;
69185;SDS011;56298;49.246;9.410;2023-12-04T12:17:52;26.13;;;21.80;;
69185;SDS011;56298;49.246;9.410;2023-12-04T12:20:17;24.88;;;20.63;;
69185;SDS011;56298;49.246;9.410;2023-12-04T12:22:43;25.60;;;20.67;;
69185;SDS011;56298;49.246;9.410;2023-12-04T12:25:11;24.57;;;20.47;;
69185;SDS011;56298;49.246;9.410;2023-12-04T12:27:37;24.13;;;19.58;;
69185;SDS011;56298;49.246;9.410;2023-12-04T12:30:03;26.73;;;21.33;;
69185;SDS011;56298;49.246;9.410;2023-12-04T12:32:35;24.65;;;20.00;;
69185;SDS011;56298;49.246;9.410;2023-12-04T12:35:01;24.83;;;20.10;;
69185;SDS011;56298;49.246;9.410;2023-12-04T12:37:28;26.33;;;21.20;;
69185;SDS011;56298;49.246;9.410;2023-12-04T12:39:54;25.30;;;19.50;;
69185;SDS011;56298;49.246;9.410;2023-12-04T12:44:51;24.95;;;19.73;;
69185;SDS011;56298;49.246;9.410;2023-12-04T12:47:18;25.25;;;20.23;;
69185;SDS011;56298;49.246;9.410;2023-12-04T12:49:43;25.20;;;20.80;;
69185;SDS011;56298;49.246;9.410;2023-12-04T12:52:09;26.20;;;20.93;;
69185;SDS011;56298;49.246;9.410;2023-12-04T12:54:42;25.75;;;21.67;;
69185;SDS011;56298;49.246;9.410;2023-12-04T12:57:09;25.90;;;21.33;;
69185;SDS011;56298;49.246;9.410;2023-12-04T12:59:36;25.52;;;20.42;;
69185;SDS011;56298;49.246;9.410;2023-12-04T13:02:03;27.23;;;21.13;;
69185;SDS011;56298;49.246;9.410;2023-12-04T13:07:01;28.48;;;23.77;;
69185;SDS011;56298;49.246;9.410;2023-12-04T13:09:28;26.67;;;22.60;;
69185;SDS011;56298;49.246;9.410;2023-12-04T13:11:53;28.90;;;22.73;;
69185;SDS011;56298;49.246;9.410;2023-12-04T13:14:19;29.27;;;22.77;;
69185;SDS011;56298;49.246;9.410;2023-12-04T13:16:47;29.93;;;24.07;;
69185;SDS011;56298;49.246;9.410;2023-12-04T13:19:12;27.92;;;23.17;;
69185;SDS011;56298;49.246;9.410;2023-12-04T13:21:37;28.07;;;21.77;;
69185;SDS011;56298;49.246;9.410;2023-12-04T13:24:03;29.33;;;22.63;;
69185;SDS011;56298;49.246;9.410;2023-12-04T13:26:32;29.73;;;23.17;;
69185;SDS011;56298;49.246;9.410;2023-12-04T13:28:58;26.80;;;22.13;;
69185;SDS011;56298;49.246;9.410;2023-12-04T13:31:24;28.70;;;23.10;;
69185;SDS011;56298;49.246;9.410;2023-12-04T13:33:49;29.67;;;22.80;;
69185;SDS011;56298;49.246;9.410;2023-12-04T13:36:14;30.43;;;22.93;;
69185;SDS011;56298;49.246;9.410;2023-12-04T13:38:40;29.07;;;23.20;;
69185;SDS011;56298;49.246;9.410;2023-12-04T13:41:05;29.57;;;23.77;;
69185;SDS011;56298;49.246;9.410;2023-12-04T13:43:53;29.70;;;24.63;;
69185;SDS011;56298;49.246;9.410;2023-12-04T13:46:22;31.80;;;23.55;;
69185;SDS011;56298;49.246;9.410;2023-12-04T13:48:47;31.58;;;24.08;;
69185;SDS011;56298;49.246;9.410;2023-12-04T13:51:13;32.03;;;24.27;;
69185;SDS011;56298;49.246;9.410;2023-12-04T13:53:39;31.27;;;24.85;;
69185;SDS011;56298;49.246;9.410;2023-12-04T13:56:15;32.20;;;24.42;;
69185;SDS011;56298;49.246;9.410;2023-12-04T13:58:47;32.00;;;24.42;;
69185;SDS011;56298;49.246;9.410;2023-12-04T14:01:18;32.72;;;24.30;;
69185;SDS011;56298;49.246;9.410;2023-12-04T14:03:47;31.13;;;24.15;;
69185;SDS011;56298;49.246;9.410;2023-12-04T14:06:13;33.27;;;24.30;;
69185;SDS011;56298;49.246;9.410;2023-12-04T14:08:39;31.67;;;23.42;;
69185;SDS011;56298;49.246;9.410;2023-12-04T14:11:05;32.13;;;22.75;;
69185;SDS011;56298;49.246;9.410;2023-12-04T14:13:31;29.73;;;20.92;;
69185;SDS011;56298;49.246;9.410;2023-12-04T14:15:57;32.35;;;21.80;;
69185;SDS011;56298;49.246;9.410;2023-12-04T14:18:23;30.97;;;21.20;;
69185;SDS011;56298;49.246;9.410;2023-12-04T14:20:48;33.42;;;24.25;;
69185;SDS011;56298;49.246;9.410;2023-12-04T14:23:16;33.15;;;25.20;;